Time;durP1;ratioP1;P1;durP2;ratioP2;P2;SDS_P1;SDS_P2;PMS_P1;PMS_P2;Temp;Humidity;BMP_temperature;BMP_pressure;BME280_temperature;BME280_humidity;BME280_pressure;Samples;Min_cycle;Max_cycle;Signal;HPM_P1;HPM_P2
2022/12/03 00:00:40;;;;;;;;;;;22.40;87.10;;;;;;5054890;28;19920;-40
2022/12/03 00:03:05;;;;;;;;;;;22.40;87.00;;;;;;5042857;28;19909;-40
2022/12/03 00:05:31;;;;;;;;;;;22.40;87.00;;;;;;5038702;28;19913;-46
2022/12/03 00:07:56;;;;;;;;;;;22.40;87.10;;;;;;5050356;28;20367;-40
2022/12/03 00:10:22;;;;;;;;;;;22.40;87.10;;;;;;5045001;28;20355;-40
2022/12/03 00:12:47;;;;;;;;;;;22.40;87.10;;;;;;5035927;28;19909;-40
2022/12/03 00:15:13;;;;;;;;;;;22.40;87.10;;;;;;5053080;28;19908;-40
2022/12/03 00:17:38;;;;;;;;;;;22.40;87.10;;;;;;5071616;28;20003;-41
2022/12/03 00:20:07;;;;;;;;;;;22.40;87.00;;;;;;5055583;28;19909;-41
2022/12/03 00:22:32;;;;;;;;;;;22.30;87.00;;;;;;5055988;28;19909;-40
2022/12/03 00:24:58;;;;;;;;;;;22.40;87.10;;;;;;5055728;28;19909;-40
2022/12/03 00:27:23;;;;;;;;;;;22.30;87.00;;;;;;5038220;28;20297;-40
2022/12/03 00:29:49;;;;;;;;;;;22.30;87.00;;;;;;5035791;28;19948;-40
2022/12/03 00:32:14;;;;;;;;;;;22.40;87.10;;;;;;5035762;28;19917;-40
2022/12/03 00:34:40;;;;;;;;;;;22.40;87.20;;;;;;5035812;28;20295;-41
2022/12/03 00:37:05;;;;;;;;;;;22.40;87.00;;;;;;5035846;28;19909;-41
2022/12/03 00:39:31;;;;;;;;;;;22.40;87.10;;;;;;5038753;28;20412;-40
2022/12/03 00:41:56;;;;;;;;;;;22.40;87.30;;;;;;5048685;28;19917;-40
2022/12/03 00:44:22;;;;;;;;;;;22.40;87.10;;;;;;5050803;28;19920;-47
2022/12/03 00:46:47;;;;;;;;;;;22.30;87.00;;;;;;5037429;28;19917;-40
2022/12/03 00:49:13;;;;;;;;;;;22.40;87.10;;;;;;5054365;28;19974;-40
2022/12/03 00:51:38;;;;;;;;;;;22.40;87.10;;;;;;5054069;28;20398;-40
2022/12/03 00:54:04;;;;;;;;;;;22.40;87.10;;;;;;5054473;28;19939;-44
2022/12/03 00:56:29;;;;;;;;;;;22.40;87.10;;;;;;5054458;28;20275;-40
2022/12/03 00:58:55;;;;;;;;;;;22.40;87.10;;;;;;5053212;28;19966;-41
2022/12/03 01:01:20;;;;;;;;;;;22.40;87.00;;;;;;5054401;28;19916;-40
2022/12/03 01:03:46;;;;;;;;;;;22.40;87.10;;;;;;5054030;28;19919;-47
2022/12/03 01:06:11;;;;;;;;;;;22.40;87.00;;;;;;5054471;28;19920;-40
2022/12/03 01:08:37;;;;;;;;;;;22.40;87.10;;;;;;5053227;28;19913;-40
2022/12/03 01:11:02;;;;;;;;;;;22.40;87.00;;;;;;5053682;28;19963;-41
2022/12/03 01:13:27;;;;;;;;;;;22.40;87.00;;;;;;5053049;28;20252;-40
2022/12/03 01:15:53;;;;;;;;;;;22.40;87.00;;;;;;5053741;28;19955;-40
2022/12/03 01:18:18;;;;;;;;;;;22.40;86.90;;;;;;5053200;28;19913;-41
2022/12/03 01:20:44;;;;;;;;;;;22.40;86.90;;;;;;5053861;28;19925;-41
2022/12/03 01:23:09;;;;;;;;;;;22.40;87.00;;;;;;5036334;28;20004;-40
2022/12/03 01:25:35;;;;;;;;;;;22.40;86.90;;;;;;5053679;28;19909;-41
2022/12/03 01:28:00;;;;;;;;;;;22.40;86.90;;;;;;5053812;28;19917;-40
2022/12/03 01:30:26;;;;;;;;;;;22.40;86.90;;;;;;5053709;28;19927;-40
2022/12/03 01:32:51;;;;;;;;;;;22.40;86.90;;;;;;5051771;28;19913;-41
2022/12/03 01:35:17;;;;;;;;;;;22.40;86.90;;;;;;5053872;28;19928;-40
2022/12/03 01:37:42;;;;;;;;;;;22.40;87.10;;;;;;5053727;28;19917;-40
2022/12/03 01:40:10;;;;;;;;;;;22.40;86.90;;;;;;5053566;28;19952;-40
2022/12/03 01:42:38;;;;;;;;;;;22.40;87.00;;;;;;5053586;28;19919;-41
2022/12/03 01:45:04;;;;;;;;;;;22.40;87.00;;;;;;5053461;28;19920;-52
2022/12/03 01:47:31;;;;;;;;;;;22.40;87.10;;;;;;5035591;28;20466;-40
2022/12/03 01:50:02;;;;;;;;;;;22.40;87.00;;;;;;5053445;28;19920;-40
2022/12/03 01:52:30;;;;;;;;;;;22.40;86.90;;;;;;5035435;28;20025;-41
2022/12/03 01:54:56;;;;;;;;;;;22.40;86.90;;;;;;5052713;28;19913;-40
2022/12/03 01:57:26;;;;;;;;;;;22.40;86.80;;;;;;5052165;28;19913;-48
2022/12/03 01:59:52;;;;;;;;;;;22.40;86.70;;;;;;5052253;28;19927;-40
2022/12/03 02:02:23;;;;;;;;;;;22.40;86.70;;;;;;5053278;28;20322;-40
2022/12/03 02:04:49;;;;;;;;;;;22.40;86.70;;;;;;5053332;28;19912;-40
2022/12/03 02:07:15;;;;;;;;;;;22.40;86.80;;;;;;5052983;28;19982;-40
2022/12/03 02:09:41;;;;;;;;;;;22.40;86.70;;;;;;5050561;28;20011;-40
2022/12/03 02:12:06;;;;;;;;;;;22.40;86.70;;;;;;5050734;28;20016;-40
2022/12/03 02:14:31;;;;;;;;;;;22.40;86.70;;;;;;5034069;28;19910;-40
2022/12/03 02:16:57;;;;;;;;;;;22.40;86.90;;;;;;5041482;28;20422;-40
2022/12/03 02:19:25;;;;;;;;;;;22.40;86.90;;;;;;5054082;28;19909;-40
2022/12/03 02:21:53;;;;;;;;;;;22.40;86.80;;;;;;5053936;28;19913;-40
2022/12/03 02:24:25;;;;;;;;;;;22.40;86.90;;;;;;5053812;28;19908;-40
2022/12/03 02:26:50;;;;;;;;;;;22.40;86.80;;;;;;5054057;28;20011;-40
2022/12/03 02:29:16;;;;;;;;;;;22.40;86.80;;;;;;5044915;28;19936;-40
2022/12/03 02:31:42;;;;;;;;;;;22.40;86.70;;;;;;5033947;28;19978;-40
2022/12/03 02:34:07;;;;;;;;;;;22.40;86.70;;;;;;5034109;28;19909;-41
2022/12/03 02:36:34;;;;;;;;;;;22.40;86.70;;;;;;5033675;28;19909;-40
2022/12/03 02:38:59;;;;;;;;;;;22.50;86.70;;;;;;5040451;28;20085;-40
2022/12/03 02:44:09;;;;;;;;;;;22.40;86.60;;;;;;5056658;28;19968;-41
2022/12/03 02:46:35;;;;;;;;;;;22.40;86.60;;;;;;5057934;28;19913;-40
2022/12/03 02:49:01;;;;;;;;;;;22.40;86.60;;;;;;5057816;28;19913;-40
2022/12/03 02:51:26;;;;;;;;;;;22.40;86.70;;;;;;5057415;28;19924;-40
2022/12/03 02:53:53;;;;;;;;;;;22.40;86.70;;;;;;5057772;28;20274;-40
2022/12/03 02:56:20;;;;;;;;;;;22.40;86.90;;;;;;5057613;28;19909;-40
2022/12/03 02:58:47;;;;;;;;;;;22.40;86.90;;;;;;5057704;28;19912;-40
2022/12/03 03:01:14;;;;;;;;;;;22.40;86.90;;;;;;5057721;28;19909;-41
2022/12/03 03:03:40;;;;;;;;;;;22.40;86.90;;;;;;5057569;28;19940;-40
2022/12/03 03:06:06;;;;;;;;;;;22.40;86.90;;;;;;5057517;28;20299;-40
2022/12/03 03:08:32;;;;;;;;;;;22.40;86.90;;;;;;5057522;28;19915;-40
2022/12/03 03:10:59;;;;;;;;;;;22.40;86.90;;;;;;5056939;28;19985;-40
2022/12/03 03:13:24;;;;;;;;;;;22.40;86.90;;;;;;5056176;28;19913;-40
2022/12/03 03:15:50;;;;;;;;;;;22.40;86.90;;;;;;5057304;28;19954;-40
2022/12/03 03:18:15;;;;;;;;;;;22.40;86.70;;;;;;5056942;28;19959;-40
2022/12/03 03:20:41;;;;;;;;;;;22.40;86.60;;;;;;5056986;28;19921;-41
2022/12/03 03:23:09;;;;;;;;;;;22.40;86.60;;;;;;5057310;28;19909;-40
2022/12/03 03:25:35;;;;;;;;;;;22.40;86.50;;;;;;5056898;28;20279;-40
2022/12/03 03:28:01;;;;;;;;;;;22.40;86.50;;;;;;5056838;28;20339;-40
2022/12/03 03:30:27;;;;;;;;;;;22.40;86.70;;;;;;5054871;28;20005;-41
2022/12/03 03:32:52;;;;;;;;;;;22.50;86.70;;;;;;5046002;28;19986;-41
2022/12/03 03:35:18;;;;;;;;;;;22.40;86.70;;;;;;5055607;28;19912;-40
2022/12/03 03:37:43;;;;;;;;;;;22.40;86.70;;;;;;5052103;28;20011;-41
2022/12/03 03:40:09;;;;;;;;;;;22.40;86.70;;;;;;5036707;28;19955;-41
2022/12/03 03:42:35;;;;;;;;;;;22.40;86.70;;;;;;5045899;28;19987;-40
2022/12/03 03:45:00;;;;;;;;;;;22.40;86.80;;;;;;5056818;28;19916;-40
2022/12/03 03:47:26;;;;;;;;;;;22.40;86.80;;;;;;5056616;28;19909;-41
2022/12/03 03:49:51;;;;;;;;;;;22.50;86.90;;;;;;5056443;28;19908;-40
2022/12/03 03:52:18;;;;;;;;;;;22.40;86.80;;;;;;5056645;28;19920;-40
2022/12/03 03:54:43;;;;;;;;;;;22.40;86.80;;;;;;5046383;28;19945;-41
2022/12/03 03:57:09;;;;;;;;;;;22.40;86.70;;;;;;5036286;28;19964;-41
2022/12/03 03:59:34;;;;;;;;;;;22.40;86.70;;;;;;5036297;28;19951;-40
2022/12/03 04:02:00;;;;;;;;;;;22.50;86.80;;;;;;5036461;28;20524;-40
2022/12/03 04:04:26;;;;;;;;;;;22.40;86.70;;;;;;5046378;28;19909;-40
2022/12/03 04:06:51;;;;;;;;;;;22.40;86.90;;;;;;5056421;28;20005;-41
2022/12/03 04:09:17;;;;;;;;;;;22.40;86.80;;;;;;5037965;28;19909;-40
2022/12/03 04:14:26;;;;;;;;;;;22.40;86.70;;;;;;5056196;28;19923;-40
2022/12/03 04:16:52;;;;;;;;;;;22.40;86.70;;;;;;5056260;28;20004;-40
2022/12/03 04:19:17;;;;;;;;;;;22.50;86.80;;;;;;5056212;28;19915;-40
2022/12/03 04:24:27;;;;;;;;;;;22.50;86.80;;;;;;5055189;28;20002;-41
2022/12/03 04:29:36;;;;;;;;;;;22.50;86.60;;;;;;5055809;28;20275;-40
2022/12/03 04:37:30;;;;;;;;;;;22.50;86.60;;;;;;5055806;28;19920;-40
2022/12/03 04:39:55;;;;;;;;;;;22.50;86.70;;;;;;5055560;28;19909;-40
2022/12/03 04:42:20;;;;;;;;;;;22.40;86.60;;;;;;5037926;28;19919;-40
2022/12/03 04:44:46;;;;;;;;;;;22.40;87.00;;;;;;5055685;28;20336;-40
2022/12/03 04:47:13;;;;;;;;;;;22.30;87.00;;;;;;5055609;28;19954;-41
2022/12/03 04:49:40;;;;;;;;;;;22.30;87.20;;;;;;5055608;28;19909;-40
2022/12/03 04:52:06;;;;;;;;;;;22.30;87.10;;;;;;5055144;28;20003;-40
2022/12/03 04:54:31;;;;;;;;;;;22.30;87.10;;;;;;5054942;28;20346;-40
2022/12/03 04:56:57;;;;;;;;;;;22.30;87.50;;;;;;5055195;28;19909;-40
2022/12/03 04:59:22;;;;;;;;;;;22.30;87.00;;;;;;5055383;28;19955;-41
2022/12/03 05:01:48;;;;;;;;;;;22.30;86.90;;;;;;5055340;28;19916;-41
2022/12/03 05:04:13;;;;;;;;;;;22.30;87.10;;;;;;5055340;28;19913;-40
2022/12/03 05:06:39;;;;;;;;;;;22.30;87.10;;;;;;5055420;28;20217;-40
2022/12/03 05:09:05;;;;;;;;;;;22.30;87.10;;;;;;5054486;28;19948;-40
2022/12/03 05:11:30;;;;;;;;;;;22.40;87.00;;;;;;5045150;28;19924;-40
2022/12/03 05:13:56;;;;;;;;;;;22.30;86.80;;;;;;5054993;28;19958;-40
2022/12/03 05:16:21;;;;;;;;;;;22.40;86.70;;;;;;5036274;28;19910;-40
2022/12/03 05:18:47;;;;;;;;;;;22.40;86.60;;;;;;5017429;28;19909;-40
2022/12/03 05:21:12;;;;;;;;;;;22.40;86.60;;;;;;5035141;28;19909;-41
2022/12/03 05:23:38;;;;;;;;;;;22.40;86.50;;;;;;5034759;28;19995;-40
2022/12/03 05:26:03;;;;;;;;;;;22.40;86.60;;;;;;5034876;28;19951;-41
2022/12/03 05:28:29;;;;;;;;;;;22.40;86.50;;;;;;5053009;28;19944;-40
2022/12/03 05:30:54;;;;;;;;;;;22.40;86.30;;;;;;5054400;28;20462;-41
2022/12/03 05:33:20;;;;;;;;;;;22.40;86.40;;;;;;5036858;28;19913;-41
2022/12/03 05:35:46;;;;;;;;;;;22.40;86.40;;;;;;5054356;28;19920;-41
2022/12/03 05:38:11;;;;;;;;;;;22.40;86.50;;;;;;5054565;28;20359;-41
2022/12/03 05:40:37;;;;;;;;;;;22.40;86.40;;;;;;5054579;28;19959;-40
2022/12/03 05:43:02;;;;;;;;;;;22.40;86.40;;;;;;5054554;28;19909;-40
2022/12/03 05:45:29;;;;;;;;;;;22.40;86.40;;;;;;5054412;28;19932;-41
2022/12/03 05:47:55;;;;;;;;;;;22.40;86.40;;;;;;5054981;28;19959;-41
2022/12/03 05:50:21;;;;;;;;;;;22.40;86.50;;;;;;5036304;28;19913;-41
2022/12/03 05:52:47;;;;;;;;;;;22.40;86.40;;;;;;5050023;28;20264;-41
2022/12/03 05:55:13;;;;;;;;;;;22.40;86.30;;;;;;5049518;28;19910;-41
2022/12/03 05:57:38;;;;;;;;;;;22.40;86.20;;;;;;5034494;28;19917;-41
2022/12/03 06:00:05;;;;;;;;;;;22.40;86.20;;;;;;5045058;28;19956;-41
2022/12/03 06:02:31;;;;;;;;;;;22.40;86.40;;;;;;5053571;28;20422;-41
2022/12/03 06:04:56;;;;;;;;;;;22.40;86.40;;;;;;5053844;28;19909;-40
2022/12/03 06:07:22;;;;;;;;;;;22.40;86.40;;;;;;5054586;28;20332;-40
2022/12/03 06:09:47;;;;;;;;;;;22.30;86.30;;;;;;5053890;28;19921;-41
2022/12/03 06:12:13;;;;;;;;;;;22.30;86.80;;;;;;5042957;28;19917;-41
2022/12/03 06:14:39;;;;;;;;;;;22.30;86.30;;;;;;5033848;28;19918;-40
2022/12/03 06:17:04;;;;;;;;;;;22.30;86.20;;;;;;5033771;28;20011;-40
2022/12/03 06:19:30;;;;;;;;;;;22.40;86.30;;;;;;5036259;28;19944;-41
2022/12/03 06:21:55;;;;;;;;;;;22.30;86.30;;;;;;5036176;28;19944;-40
2022/12/03 06:24:21;;;;;;;;;;;22.40;86.20;;;;;;5053978;28;19912;-41
2022/12/03 06:26:46;;;;;;;;;;;22.40;86.30;;;;;;5053725;28;20280;-41
2022/12/03 06:29:12;;;;;;;;;;;22.40;86.20;;;;;;5054014;28;19908;-42
2022/12/03 06:31:37;;;;;;;;;;;22.40;86.20;;;;;;5053695;28;20304;-41
2022/12/03 06:34:02;;;;;;;;;;;22.40;86.20;;;;;;5062121;28;20021;-40
2022/12/03 06:36:28;;;;;;;;;;;22.40;86.10;;;;;;5056947;28;19913;-40
2022/12/03 06:38:53;;;;;;;;;;;22.50;86.10;;;;;;5056378;28;19912;-40
2022/12/03 06:41:19;;;;;;;;;;;22.50;86.00;;;;;;5052054;28;19908;-40
2022/12/03 06:43:44;;;;;;;;;;;22.40;85.90;;;;;;5052067;28;19909;-41
2022/12/03 06:46:10;;;;;;;;;;;22.50;85.80;;;;;;5055795;28;20276;-40
2022/12/03 06:48:35;;;;;;;;;;;22.50;85.90;;;;;;5051978;28;19909;-40
2022/12/03 06:51:01;;;;;;;;;;;22.50;85.90;;;;;;5037206;28;19924;-40
2022/12/03 06:53:26;;;;;;;;;;;22.60;86.10;;;;;;5052746;28;20361;-41
2022/12/03 06:55:52;;;;;;;;;;;22.50;86.00;;;;;;5053484;28;19905;-41
2022/12/03 06:58:17;;;;;;;;;;;22.50;86.50;;;;;;5052989;28;19916;-44
2022/12/03 07:00:43;;;;;;;;;;;22.40;87.20;;;;;;5053676;28;19939;-44
2022/12/03 07:03:08;;;;;;;;;;;22.40;86.80;;;;;;5051686;28;19909;-44
2022/12/03 07:05:34;;;;;;;;;;;21.90;80.30;;;;;;5035574;28;19928;-42
2022/12/03 07:07:59;;;;;;;;;;;21.60;75.90;;;;;;5050660;28;20007;-45
2022/12/03 07:10:25;;;;;;;;;;;20.70;72.30;;;;;;5053565;28;19916;-42
2022/12/03 07:12:50;;;;;;;;;;;20.10;71.50;;;;;;5053008;28;19916;-47
2022/12/03 07:15:16;;;;;;;;;;;19.60;71.90;;;;;;5053519;28;20426;-42
2022/12/03 07:17:41;;;;;;;;;;;19.40;73.90;;;;;;5051386;28;19988;-51
2022/12/03 07:20:07;;;;;;;;;;;19.60;75.80;;;;;;5052196;28;19974;-43
2022/12/03 07:22:32;;;;;;;;;;;19.90;76.70;;;;;;5051056;28;19920;-42
2022/12/03 07:24:58;;;;;;;;;;;20.10;77.80;;;;;;5053265;28;19984;-43
2022/12/03 07:27:24;;;;;;;;;;;20.30;79.10;;;;;;5035374;28;19931;-42
2022/12/03 07:29:49;;;;;;;;;;;20.40;80.20;;;;;;5053255;28;20276;-43
2022/12/03 07:32:14;;;;;;;;;;;20.50;80.80;;;;;;5054364;28;20366;-45
2022/12/03 07:34:40;;;;;;;;;;;20.60;81.30;;;;;;5037152;28;19927;-42
2022/12/03 07:37:05;;;;;;;;;;;20.60;81.70;;;;;;5055925;28;19932;-46
2022/12/03 07:39:31;;;;;;;;;;;20.60;82.00;;;;;;5056266;28;19913;-50
2022/12/03 07:41:56;;;;;;;;;;;20.70;82.40;;;;;;5054707;28;19990;-43
2022/12/03 07:44:22;;;;;;;;;;;20.70;82.60;;;;;;5053614;28;20360;-42
2022/12/03 07:46:47;;;;;;;;;;;20.70;82.90;;;;;;5056424;28;19912;-43
2022/12/03 07:49:13;;;;;;;;;;;20.70;83.20;;;;;;5056754;28;19941;-46
2022/12/03 07:51:38;;;;;;;;;;;20.60;80.70;;;;;;5071499;28;20275;-42
2022/12/03 07:54:04;;;;;;;;;;;20.60;81.30;;;;;;5055803;28;20360;-42
2022/12/03 07:56:30;;;;;;;;;;;20.60;83.20;;;;;;5059091;28;19912;-41
2022/12/03 07:58:56;;;;;;;;;;;20.60;83.90;;;;;;5075013;28;19927;-43
2022/12/03 08:01:21;;;;;;;;;;;20.60;84.20;;;;;;5074015;28;19909;-46
2022/12/03 08:03:47;;;;;;;;;;;20.60;84.40;;;;;;5075920;28;19909;-42
2022/12/03 08:06:12;;;;;;;;;;;20.60;84.70;;;;;;5075920;28;19908;-41
2022/12/03 08:08:38;;;;;;;;;;;20.60;84.90;;;;;;5076338;28;20267;-42
2022/12/03 08:11:03;;;;;;;;;;;20.60;85.10;;;;;;5076357;28;19960;-39
2022/12/03 08:13:29;;;;;;;;;;;20.60;85.20;;;;;;5075818;28;19908;-42
2022/12/03 08:15:56;;;;;;;;;;;20.60;85.30;;;;;;5076142;28;19908;-42
2022/12/03 08:18:21;;;;;;;;;;;20.50;85.40;;;;;;5076061;28;19913;-42
2022/12/03 08:20:48;;;;;;;;;;;20.50;85.60;;;;;;5076143;28;19908;-42
2022/12/03 08:23:18;;;;;;;;;;;20.50;85.70;;;;;;5076109;28;19908;-42
2022/12/03 08:25:43;;;;;;;;;;;20.50;85.90;;;;;;5075846;28;20252;-42
2022/12/03 08:28:19;;;;;;;;;;;20.50;85.90;;;;;;5075949;28;19920;-42
2022/12/03 08:31:00;;;;;;;;;;;20.50;86.10;;;;;;5075864;28;19916;-43
2022/12/03 08:33:34;;;;;;;;;;;20.50;86.20;;;;;;5075791;28;19915;-42
2022/12/03 08:36:00;;;;;;;;;;;20.50;86.30;;;;;;5075620;28;19908;-42
2022/12/03 08:38:28;;;;;;;;;;;20.40;86.40;;;;;;5075682;28;19915;-42
2022/12/03 08:40:54;;;;;;;;;;;20.40;86.50;;;;;;5075453;28;19916;-42
2022/12/03 08:43:26;;;;;;;;;;;20.40;86.60;;;;;;5075541;28;19909;-43
2022/12/03 08:45:53;;;;;;;;;;;20.30;86.70;;;;;;5075044;28;19908;-42
2022/12/03 08:48:31;;;;;;;;;;;20.30;86.70;;;;;;5075347;28;19915;-40
2022/12/03 08:51:07;;;;;;;;;;;20.30;86.80;;;;;;5075239;28;19967;-41
2022/12/03 08:53:35;;;;;;;;;;;20.30;86.80;;;;;;5075436;28;20315;-41
2022/12/03 08:56:19;;;;;;;;;;;20.30;86.80;;;;;;5075499;28;19916;-41
2022/12/03 08:58:52;;;;;;;;;;;20.30;86.90;;;;;;5075083;28;19908;-41
2022/12/03 09:01:37;;;;;;;;;;;20.30;87.00;;;;;;5074890;28;20386;-41
2022/12/03 09:04:21;;;;;;;;;;;20.30;87.00;;;;;;5074823;28;19947;-40
2022/12/03 09:06:47;;;;;;;;;;;20.30;87.00;;;;;;5074971;28;19916;-41
2022/12/03 09:09:12;;;;;;;;;;;20.20;87.10;;;;;;5074386;28;19909;-41
2022/12/03 09:11:38;;;;;;;;;;;20.20;87.10;;;;;;5074984;28;19916;-40
2022/12/03 09:14:03;;;;;;;;;;;20.20;87.20;;;;;;5074889;28;19955;-41
2022/12/03 09:16:29;;;;;;;;;;;20.20;87.30;;;;;;5074918;28;20267;-41
2022/12/03 09:18:55;;;;;;;;;;;20.20;87.30;;;;;;5074522;28;19916;-41
2022/12/03 09:21:20;;;;;;;;;;;20.10;87.30;;;;;;5074957;28;19959;-41
2022/12/03 09:23:45;;;;;;;;;;;20.10;87.40;;;;;;5074776;28;19916;-41
2022/12/03 09:26:11;;;;;;;;;;;20.10;87.50;;;;;;5074448;28;19915;-41
2022/12/03 09:28:36;;;;;;;;;;;20.10;87.60;;;;;;5056600;28;19912;-41
2022/12/03 09:31:02;;;;;;;;;;;20.10;87.60;;;;;;5074401;28;19920;-41
2022/12/03 09:33:28;;;;;;;;;;;20.10;87.60;;;;;;5074418;28;20252;-40
2022/12/03 09:35:53;;;;;;;;;;;20.10;87.60;;;;;;5074243;28;20382;-42
2022/12/03 09:38:19;;;;;;;;;;;20.10;87.60;;;;;;5073991;28;19912;-41
2022/12/03 09:40:44;;;;;;;;;;;20.10;87.70;;;;;;5056747;28;19915;-42
2022/12/03 09:43:10;;;;;;;;;;;20.10;87.80;;;;;;5074547;28;19909;-42
2022/12/03 09:45:36;;;;;;;;;;;20.00;87.80;;;;;;5074336;28;19991;-42
2022/12/03 09:48:02;;;;;;;;;;;20.00;87.80;;;;;;5074214;28;20303;-41
2022/12/03 09:50:29;;;;;;;;;;;20.00;87.80;;;;;;5074302;28;19908;-42
2022/12/03 09:52:57;;;;;;;;;;;20.00;87.90;;;;;;5073622;28;19915;-42
2022/12/03 09:55:24;;;;;;;;;;;20.00;88.00;;;;;;5074261;28;19908;-42
2022/12/03 09:57:53;;;;;;;;;;;20.00;88.10;;;;;;5074253;28;19915;-42
2022/12/03 10:00:22;;;;;;;;;;;19.90;87.90;;;;;;5074226;28;19915;-42
2022/12/03 10:02:48;;;;;;;;;;;19.90;88.00;;;;;;5074235;28;19909;-42
2022/12/03 10:05:13;;;;;;;;;;;19.90;88.00;;;;;;5056219;28;20418;-42
2022/12/03 10:07:40;;;;;;;;;;;19.90;88.00;;;;;;5074011;28;19999;-42
2022/12/03 10:10:06;;;;;;;;;;;19.90;88.00;;;;;;5073668;28;20011;-42
2022/12/03 10:12:32;;;;;;;;;;;19.90;88.10;;;;;;5073974;28;19921;-41
2022/12/03 10:15:17;;;;;;;;;;;19.80;88.10;;;;;;5042161;28;20139;-42
2022/12/03 10:17:44;;;;;;;;;;;19.90;88.20;;;;;;5073863;28;20011;-42
2022/12/03 10:20:11;;;;;;;;;;;19.80;88.20;;;;;;5073634;28;20003;-42
2022/12/03 10:22:36;;;;;;;;;;;19.80;88.20;;;;;;5073513;28;20361;-42
2022/12/03 10:25:04;;;;;;;;;;;19.80;88.30;;;;;;5074014;28;19908;-42
2022/12/03 10:27:30;;;;;;;;;;;19.80;88.30;;;;;;5073695;28;19909;-42
2022/12/03 10:29:56;;;;;;;;;;;19.80;88.30;;;;;;5073929;28;20367;-41
2022/12/03 10:32:26;;;;;;;;;;;19.80;88.30;;;;;;5073482;28;20367;-42
2022/12/03 10:35:04;;;;;;;;;;;19.80;88.30;;;;;;5073441;28;19919;-42
2022/12/03 10:37:30;;;;;;;;;;;19.70;88.40;;;;;;5055643;28;20013;-41
2022/12/03 10:40:04;;;;;;;;;;;19.80;88.40;;;;;;5073374;28;20414;-42
2022/12/03 10:42:31;;;;;;;;;;;19.70;88.50;;;;;;5073713;28;19908;-41
2022/12/03 10:45:13;;;;;;;;;;;19.70;88.40;;;;;;5073772;28;19912;-41
2022/12/03 10:47:38;;;;;;;;;;;19.80;88.50;;;;;;5073384;28;19955;-41
2022/12/03 10:50:05;;;;;;;;;;;19.70;88.50;;;;;;5073342;28;19916;-41
2022/12/03 10:52:31;;;;;;;;;;;19.70;88.50;;;;;;5073174;28;19920;-41
2022/12/03 10:54:57;;;;;;;;;;;19.80;88.50;;;;;;5073452;28;19942;-41
2022/12/03 10:57:22;;;;;;;;;;;19.70;88.50;;;;;;5073152;28;19955;-42
2022/12/03 10:59:48;;;;;;;;;;;19.70;88.40;;;;;;5073598;28;19908;-42
2022/12/03 11:02:18;;;;;;;;;;;19.70;88.50;;;;;;5073334;28;19999;-41
2022/12/03 11:04:44;;;;;;;;;;;19.70;88.50;;;;;;5075542;28;19954;-41
2022/12/03 11:07:19;;;;;;;;;;;19.80;88.50;;;;;;5077047;28;20003;-41
2022/12/03 11:09:46;;;;;;;;;;;19.70;88.30;;;;;;5076901;28;20363;-41
2022/12/03 11:12:20;;;;;;;;;;;19.80;88.50;;;;;;5076825;28;19920;-42
2022/12/03 11:14:52;;;;;;;;;;;19.80;88.40;;;;;;5077000;28;19923;-41
2022/12/03 11:17:23;;;;;;;;;;;19.80;88.40;;;;;;5077070;28;19908;-42
2022/12/03 11:19:50;;;;;;;;;;;19.70;88.30;;;;;;5076765;28;20351;-41
2022/12/03 11:22:23;;;;;;;;;;;19.80;88.20;;;;;;5077400;28;19908;-41
2022/12/03 11:25:08;;;;;;;;;;;19.80;88.20;;;;;;5076892;28;19909;-41
2022/12/03 11:27:35;;;;;;;;;;;19.80;88.30;;;;;;5076781;28;19908;-41
2022/12/03 11:30:01;;;;;;;;;;;19.80;88.30;;;;;;5076882;28;20387;-41
2022/12/03 11:32:57;;;;;;;;;;;19.80;88.40;;;;;;5076757;28;20007;-41
2022/12/03 11:35:23;;;;;;;;;;;19.70;88.40;;;;;;5076650;28;20287;-41
2022/12/03 11:37:48;;;;;;;;;;;19.70;88.40;;;;;;5076792;28;19953;-41
2022/12/03 11:40:17;;;;;;;;;;;19.60;88.50;;;;;;5076314;28;20351;-41
2022/12/03 11:42:43;;;;;;;;;;;19.60;88.50;;;;;;5076174;28;19913;-41
2022/12/03 11:45:08;;;;;;;;;;;19.60;88.50;;;;;;5076637;28;19919;-41
2022/12/03 11:47:41;;;;;;;;;;;19.60;88.50;;;;;;5076425;28;19999;-41
2022/12/03 11:50:19;;;;;;;;;;;19.60;88.60;;;;;;5076089;28;19908;-41
2022/12/03 11:52:46;;;;;;;;;;;19.60;88.60;;;;;;5076300;28;19916;-41
2022/12/03 11:55:17;;;;;;;;;;;19.60;88.50;;;;;;5076423;28;20363;-41
2022/12/03 11:57:43;;;;;;;;;;;19.60;88.40;;;;;;5076375;28;19908;-41
2022/12/03 12:00:15;;;;;;;;;;;19.60;88.30;;;;;;5076200;28;19977;-41
2022/12/03 12:02:41;;;;;;;;;;;19.60;88.40;;;;;;5076178;28;19909;-41
2022/12/03 12:05:13;;;;;;;;;;;19.60;88.50;;;;;;5075847;28;19908;-41
2022/12/03 12:07:39;;;;;;;;;;;19.60;88.50;;;;;;5075926;28;19908;-41
2022/12/03 12:10:04;;;;;;;;;;;19.60;88.50;;;;;;5075610;28;19927;-41
2022/12/03 12:12:35;;;;;;;;;;;19.60;88.60;;;;;;5075418;28;20359;-41
2022/12/03 12:15:20;;;;;;;;;;;19.50;88.60;;;;;;5075907;28;19912;-41
2022/12/03 12:17:46;;;;;;;;;;;19.50;88.70;;;;;;5075225;28;19975;-41
2022/12/03 12:20:20;;;;;;;;;;;19.50;88.70;;;;;;5075876;28;19942;-41
2022/12/03 12:22:46;;;;;;;;;;;19.50;88.70;;;;;;5076287;28;19919;-40
2022/12/03 12:25:38;;;;;;;;;;;19.50;88.70;;;;;;5075472;28;19908;-40
2022/12/03 12:28:03;;;;;;;;;;;19.50;89.20;;;;;;5072431;28;19935;-40
2022/12/03 12:30:29;;;;;;;;;;;19.50;88.70;;;;;;5075639;28;19909;-40
2022/12/03 12:33:12;;;;;;;;;;;19.50;88.70;;;;;;5075559;28;19962;-41
2022/12/03 12:35:39;;;;;;;;;;;19.50;88.70;;;;;;5075171;28;20044;-41
2022/12/03 12:38:04;;;;;;;;;;;19.50;88.70;;;;;;5075323;28;19991;-40
2022/12/03 12:40:31;;;;;;;;;;;19.50;88.60;;;;;;5075056;28;19915;-40
2022/12/03 12:43:01;;;;;;;;;;;19.50;88.70;;;;;;5075121;28;19908;-40
2022/12/03 12:45:27;;;;;;;;;;;19.50;88.70;;;;;;5075488;28;20299;-40
2022/12/03 12:47:53;;;;;;;;;;;19.50;88.70;;;;;;5075112;28;19912;-40
2022/12/03 12:50:18;;;;;;;;;;;19.50;88.70;;;;;;5075067;28;19913;-40
2022/12/03 12:52:57;;;;;;;;;;;19.50;89.20;;;;;;5075239;28;19920;-40
2022/12/03 12:55:23;;;;;;;;;;;19.50;88.60;;;;;;5075005;28;19931;-40
2022/12/03 12:57:48;;;;;;;;;;;19.40;88.60;;;;;;5075184;28;20355;-41
2022/12/03 13:00:21;;;;;;;;;;;19.50;88.60;;;;;;5074949;28;20003;-41
2022/12/03 13:02:55;;;;;;;;;;;19.40;88.60;;;;;;5075268;28;19999;-41
2022/12/03 13:05:21;;;;;;;;;;;19.40;88.60;;;;;;5074904;28;19916;-40
2022/12/03 13:07:47;;;;;;;;;;;19.40;88.60;;;;;;5057093;28;19909;-40
2022/12/03 13:10:20;;;;;;;;;;;19.40;88.50;;;;;;5074745;28;19933;-40
2022/12/03 13:12:46;;;;;;;;;;;19.50;88.60;;;;;;5074581;28;20019;-40
2022/12/03 13:15:37;;;;;;;;;;;19.50;88.50;;;;;;5074888;28;19959;-40
2022/12/03 13:18:21;;;;;;;;;;;19.40;88.50;;;;;;5050874;28;19912;-40
2022/12/03 13:20:47;;;;;;;;;;;19.50;88.50;;;;;;5074372;28;19915;-40
2022/12/03 13:23:24;;;;;;;;;;;19.40;88.40;;;;;;5074724;28;19991;-40
2022/12/03 13:25:50;;;;;;;;;;;19.40;88.50;;;;;;5074619;28;19909;-40
2022/12/03 13:28:16;;;;;;;;;;;19.40;88.50;;;;;;5073140;28;20354;-40
2022/12/03 13:30:42;;;;;;;;;;;19.40;88.50;;;;;;5056646;28;20014;-40
2022/12/03 13:33:12;;;;;;;;;;;19.40;88.50;;;;;;5074222;28;20015;-40
2022/12/03 13:35:38;;;;;;;;;;;19.40;88.50;;;;;;5074142;28;19908;-40
2022/12/03 13:38:14;;;;;;;;;;;19.40;88.50;;;;;;5074174;28;19916;-40
2022/12/03 13:40:40;;;;;;;;;;;19.40;88.50;;;;;;5073889;28;19908;-40
2022/12/03 13:43:14;;;;;;;;;;;19.40;88.50;;;;;;5074439;28;19909;-40
2022/12/03 13:45:42;;;;;;;;;;;19.40;88.50;;;;;;5074055;28;19954;-40
2022/12/03 13:48:30;;;;;;;;;;;19.40;88.50;;;;;;5074269;28;19916;-40
2022/12/03 13:50:58;;;;;;;;;;;19.40;88.40;;;;;;5065471;28;19922;-40
2022/12/03 13:53:41;;;;;;;;;;;19.30;88.40;;;;;;5073952;28;19955;-40
2022/12/03 13:56:26;;;;;;;;;;;19.40;88.50;;;;;;5074270;28;19908;-41
2022/12/03 13:58:51;;;;;;;;;;;19.40;88.50;;;;;;5073811;28;20462;-41
2022/12/03 14:01:16;;;;;;;;;;;19.40;88.50;;;;;;5073932;28;19947;-40
2022/12/03 14:03:42;;;;;;;;;;;19.30;88.40;;;;;;5074064;28;19909;-40
2022/12/03 14:06:07;;;;;;;;;;;19.30;88.90;;;;;;5074252;28;19913;-40
2022/12/03 14:08:33;;;;;;;;;;;19.30;88.50;;;;;;5073681;28;20423;-40
2022/12/03 14:10:58;;;;;;;;;;;19.30;88.50;;;;;;5055722;28;19920;-40
2022/12/03 14:13:24;;;;;;;;;;;19.30;88.40;;;;;;5074089;28;19995;-40
2022/12/03 14:15:49;;;;;;;;;;;19.30;88.30;;;;;;5073830;28;19931;-40
2022/12/03 14:18:15;;;;;;;;;;;19.30;88.40;;;;;;5074151;28;19913;-40
2022/12/03 14:20:40;;;;;;;;;;;19.30;88.30;;;;;;5073533;28;19915;-40
2022/12/03 14:23:05;;;;;;;;;;;19.30;88.40;;;;;;5073545;28;19979;-41
2022/12/03 14:25:31;;;;;;;;;;;19.30;88.40;;;;;;5073575;28;19919;-41
2022/12/03 14:27:56;;;;;;;;;;;19.30;88.40;;;;;;5073648;28;20419;-40
2022/12/03 14:30:22;;;;;;;;;;;19.30;88.90;;;;;;5055792;28;19908;-41
2022/12/03 14:32:47;;;;;;;;;;;19.30;88.40;;;;;;5073506;28;19924;-41